createdAt,value
2022-11-15T00:00:57.897Z,6.72
2022-11-15T00:03:27.231Z,9.50
2022-11-15T00:05:54.432Z,11.75
2022-11-15T00:08:21.654Z,8.15
2022-11-15T00:11:03.020Z,9.52
2022-11-15T00:13:31.006Z,7.57
2022-11-15T00:15:59.533Z,8.93
2022-11-15T00:18:26.558Z,7.57
2022-11-15T00:20:53.376Z,7.72
2022-11-15T00:23:20.273Z,7.75
2022-11-15T00:25:47.139Z,7.63
2022-11-15T00:28:14.048Z,10.70
2022-11-15T00:30:40.874Z,8.23
2022-11-15T00:33:08.147Z,8.63
2022-11-15T00:35:35.988Z,8.77
2022-11-15T00:38:03.467Z,7.35
2022-11-15T00:40:30.436Z,7.00
2022-11-15T00:42:57.633Z,8.32
2022-11-15T00:45:24.728Z,7.32
2022-11-15T00:47:51.919Z,7.85
2022-11-15T00:50:19.255Z,8.57
2022-11-15T00:52:46.467Z,9.57
2022-11-15T00:55:20.303Z,7.93
2022-11-15T00:57:47.936Z,6.15
2022-11-15T01:00:15.108Z,10.30
2022-11-15T01:02:41.901Z,8.23
2022-11-15T01:05:09.662Z,7.50
2022-11-15T01:07:36.663Z,6.72
2022-11-15T01:10:04.682Z,8.57
2022-11-15T01:12:31.833Z,9.10
2022-11-15T01:14:58.739Z,7.35
2022-11-15T01:17:25.864Z,7.75
2022-11-15T01:19:52.663Z,11.35
2022-11-15T01:22:19.567Z,8.88
2022-11-15T01:24:46.374Z,8.63
2022-11-15T01:27:13.207Z,7.43
2022-11-15T01:29:40.013Z,8.13
2022-11-15T01:32:06.793Z,9.90
2022-11-15T01:34:33.627Z,6.35
2022-11-15T01:37:00.629Z,6.43
2022-11-15T01:39:27.786Z,10.07
2022-11-15T01:41:55.238Z,7.30
2022-11-15T01:44:44.749Z,7.13
2022-11-15T01:47:26.056Z,6.05
2022-11-15T01:50:01.667Z,5.28
2022-11-15T01:52:31.185Z,5.82
2022-11-15T01:55:08.661Z,6.55
2022-11-15T01:57:35.751Z,5.30
2022-11-15T02:00:04.724Z,11.85
2022-11-15T02:02:32.106Z,7.25
2022-11-15T02:04:59.125Z,5.18
2022-11-15T02:07:27.040Z,6.25
2022-11-15T02:09:54.653Z,5.47
2022-11-15T02:12:22.823Z,5.28
2022-11-15T02:14:54.518Z,5.03
2022-11-15T02:17:21.204Z,6.13
2022-11-15T02:20:12.838Z,7.60
2022-11-15T02:22:58.534Z,5.40
2022-11-15T02:25:48.502Z,8.23
2022-11-15T02:28:27.271Z,7.03
2022-11-15T02:31:16.023Z,6.85
2022-11-15T02:34:08.098Z,8.10
2022-11-15T02:37:02.278Z,6.65
2022-11-15T02:39:37.506Z,10.85
2022-11-15T02:42:48.910Z,7.45
2022-11-15T02:45:23.684Z,7.25
2022-11-15T02:47:52.911Z,6.57
2022-11-15T02:50:22.181Z,6.65
2022-11-15T02:52:52.908Z,8.25
2022-11-15T02:55:36.254Z,6.15
2022-11-15T02:58:09.090Z,7.30
2022-11-15T03:01:06.256Z,5.40
2022-11-15T03:04:00.637Z,7.15
2022-11-15T03:06:30.532Z,6.00
2022-11-15T03:09:09.703Z,5.93
2022-11-15T03:11:41.276Z,9.57
2022-11-15T03:14:32.904Z,7.32
2022-11-15T03:17:08.619Z,7.05
2022-11-15T03:19:50.866Z,8.20
2022-11-15T03:22:24.274Z,6.65
2022-11-15T03:24:57.341Z,8.43
2022-11-15T03:27:28.597Z,6.22
2022-11-15T03:30:01.598Z,8.00
2022-11-15T03:32:32.455Z,6.45
2022-11-15T03:35:22.762Z,6.40
2022-11-15T03:38:08.258Z,4.82
2022-11-15T03:40:42.595Z,6.13
2022-11-15T03:43:31.676Z,4.85
2022-11-15T03:46:24.221Z,5.18
2022-11-15T03:48:55.845Z,5.68
2022-11-15T03:51:22.707Z,9.57
2022-11-15T03:53:49.642Z,5.75
2022-11-15T03:56:16.465Z,6.60
2022-11-15T03:58:43.281Z,5.97
2022-11-15T04:01:10.113Z,5.50
2022-11-15T04:03:37.019Z,6.57
2022-11-15T04:06:03.874Z,7.38
2022-11-15T04:08:30.685Z,6.60
2022-11-15T04:10:57.595Z,5.68
2022-11-15T04:13:24.435Z,5.00
2022-11-15T04:15:51.200Z,5.78
2022-11-15T04:18:18.059Z,4.47
2022-11-15T04:21:03.239Z,4.30
2022-11-15T04:23:48.675Z,4.18
2022-11-15T04:26:21.965Z,4.25
2022-11-15T04:29:07.574Z,4.85
2022-11-15T04:31:34.412Z,4.65
2022-11-15T04:34:01.241Z,5.00
2022-11-15T04:36:46.492Z,6.43
2022-11-15T04:39:13.317Z,4.05
2022-11-15T04:41:40.148Z,4.50
2022-11-15T04:44:06.984Z,5.30
2022-11-15T04:46:34.119Z,5.35
2022-11-15T04:49:00.947Z,4.60
2022-11-15T04:51:27.846Z,5.72
2022-11-15T04:53:54.646Z,4.45
2022-11-15T04:56:21.422Z,5.90
2022-11-15T04:58:50.726Z,5.15
2022-11-15T05:01:17.876Z,4.68
2022-11-15T05:04:03.943Z,5.45
2022-11-15T05:06:31.363Z,5.40
2022-11-15T05:08:58.582Z,4.22
2022-11-15T05:11:25.499Z,5.57
2022-11-15T05:13:52.328Z,6.43
2022-11-15T05:16:19.162Z,8.13
2022-11-15T05:18:46.149Z,6.22
2022-11-15T05:21:15.091Z,6.70
2022-11-15T05:23:42.840Z,8.50
2022-11-15T05:26:10.726Z,5.80
2022-11-15T05:28:37.708Z,5.93
2022-11-15T05:31:10.399Z,6.53
2022-11-15T05:33:39.844Z,5.57
2022-11-15T05:36:35.926Z,4.80
2022-11-15T05:39:04.583Z,5.90
2022-11-15T05:41:48.252Z,7.78
2022-11-15T05:44:19.195Z,4.65
2022-11-15T05:46:46.945Z,3.83
2022-11-15T05:49:17.158Z,6.47
2022-11-15T05:51:47.505Z,5.50
2022-11-15T05:54:15.284Z,3.55
2022-11-15T05:56:42.244Z,6.40
2022-11-15T05:59:10.655Z,6.90
2022-11-15T06:01:38.062Z,7.35
2022-11-15T06:04:04.884Z,8.48
2022-11-15T06:06:31.887Z,13.68
2022-11-15T06:08:58.750Z,7.22
2022-11-15T06:11:25.527Z,8.00
2022-11-15T06:13:52.419Z,12.40
2022-11-15T06:16:19.244Z,5.00
2022-11-15T06:18:46.189Z,7.65
2022-11-15T06:21:12.974Z,7.53
2022-11-15T06:23:39.884Z,5.22
2022-11-15T06:26:06.864Z,16.08
2022-11-15T06:28:34.352Z,6.35
2022-11-15T06:31:14.310Z,5.78
2022-11-15T06:33:41.531Z,7.07
2022-11-15T06:36:18.040Z,6.35
2022-11-15T06:38:46.057Z,7.80
2022-11-15T06:41:14.534Z,6.65
2022-11-15T06:43:42.237Z,4.50
2022-11-15T06:46:09.699Z,11.32
2022-11-15T06:48:37.340Z,8.00
2022-11-15T06:51:05.427Z,9.85
2022-11-15T06:53:33.765Z,5.45
2022-11-15T06:56:06.529Z,7.28
2022-11-15T06:58:33.972Z,9.57
2022-11-15T07:01:10.454Z,12.02
2022-11-15T07:03:39.667Z,7.15
2022-11-15T07:06:08.018Z,14.80
2022-11-15T07:08:39.089Z,6.18
2022-11-15T07:11:19.243Z,5.27
2022-11-15T07:13:46.540Z,7.10
2022-11-15T07:30:47.505Z,12.07
2022-11-15T07:46:05.227Z,5.67
2022-11-15T07:55:56.000Z,11.30
2022-11-15T07:58:23.291Z,11.33
2022-11-15T08:07:27.872Z,9.97
2022-11-15T08:18:16.319Z,6.47
2022-11-15T08:27:21.305Z,8.53
2022-11-15T08:29:50.249Z,6.03
2022-11-15T08:32:21.378Z,4.50
2022-11-15T08:35:28.662Z,10.20
2022-11-15T08:37:56.447Z,9.87
2022-11-15T08:40:35.542Z,6.10
2022-11-15T08:43:12.220Z,8.00
2022-11-15T08:45:50.343Z,9.17
2022-11-15T08:48:23.527Z,4.80
2022-11-15T08:53:44.805Z,5.00
2022-11-15T08:56:16.934Z,9.30
2022-11-15T08:58:44.829Z,5.43
2022-11-15T09:01:25.022Z,7.07
2022-11-15T09:04:04.347Z,9.07
2022-11-15T09:06:32.173Z,8.43
2022-11-15T09:09:06.528Z,6.80
2022-11-15T09:11:47.661Z,9.00
2022-11-15T09:14:28.435Z,8.83
2022-11-15T09:16:59.580Z,9.50
2022-11-15T09:19:29.803Z,16.07
2022-11-15T09:22:03.943Z,12.20
2022-11-15T09:27:54.028Z,15.97
2022-11-15T09:30:23.462Z,9.90
2022-11-15T09:32:56.437Z,6.63
2022-11-15T09:35:23.689Z,13.23
2022-11-15T09:37:56.470Z,5.10
2022-11-15T09:40:39.054Z,4.97
2022-11-15T09:43:24.517Z,6.40
2022-11-15T09:46:17.017Z,5.70
2022-11-15T09:48:58.336Z,4.57
2022-11-15T09:51:37.996Z,5.57
2022-11-15T09:57:30.855Z,3.60
2022-11-15T10:00:47.079Z,3.33
2022-11-15T10:03:19.693Z,3.87
2022-11-15T10:06:04.006Z,4.97
2022-11-15T10:09:22.670Z,6.80
2022-11-15T10:12:19.015Z,4.53
2022-11-15T10:14:53.157Z,3.27
2022-11-15T10:18:44.208Z,4.33
2022-11-15T10:21:47.840Z,5.33
2022-11-15T10:24:32.249Z,2.80
2022-11-15T10:27:24.015Z,5.43
2022-11-15T10:29:54.851Z,3.70
2022-11-15T10:32:22.927Z,3.17
2022-11-15T10:34:54.366Z,3.67
2022-11-15T10:37:32.664Z,4.43
2022-11-15T10:40:35.693Z,2.53
2022-11-15T10:43:22.320Z,5.87
2022-11-15T10:45:53.884Z,2.73
2022-11-15T10:48:27.501Z,5.10
2022-11-15T10:50:56.084Z,3.17
2022-11-15T10:53:49.081Z,2.50
2022-11-15T10:56:30.124Z,5.17
2022-11-15T10:58:59.412Z,3.70
2022-11-15T11:01:28.970Z,3.40
2022-11-15T11:04:03.824Z,2.07
2022-11-15T11:06:52.590Z,3.20
2022-11-15T11:09:43.362Z,2.50
2022-11-15T11:12:27.947Z,3.30
2022-11-15T11:14:57.689Z,3.77
2022-11-15T11:17:48.460Z,2.93
2022-11-15T11:20:22.431Z,5.07
2022-11-15T11:23:23.863Z,2.00
2022-11-15T11:26:12.303Z,2.20
2022-11-15T11:28:53.914Z,3.03
2022-11-15T11:31:48.233Z,3.50
2022-11-15T11:34:48.639Z,3.50
2022-11-15T11:37:44.025Z,3.93
2022-11-15T11:40:41.837Z,3.93
2022-11-15T11:43:27.237Z,2.63
2022-11-15T11:46:06.331Z,4.20
2022-11-15T11:48:47.293Z,6.93
2022-11-15T11:51:24.405Z,3.47
2022-11-15T11:53:59.892Z,2.10
2022-11-15T11:56:32.757Z,2.27
2022-11-15T11:59:22.181Z,7.00
2022-11-15T12:01:49.421Z,2.03
2022-11-15T12:04:22.081Z,2.30
2022-11-15T12:06:55.657Z,2.10
2022-11-15T12:09:54.741Z,5.90
2022-11-15T12:12:29.430Z,3.23
2022-11-15T12:15:18.137Z,2.00
2022-11-15T12:17:46.845Z,3.23
2022-11-15T12:20:20.419Z,3.37
2022-11-15T12:23:29.928Z,2.83
2022-11-15T12:26:02.976Z,2.47
2022-11-15T12:29:05.980Z,3.37
2022-11-15T12:31:44.763Z,2.13
2022-11-15T12:34:37.460Z,6.03
2022-11-15T12:37:34.197Z,2.53
2022-11-15T12:40:06.065Z,2.63
2022-11-15T12:42:41.043Z,2.40
2022-11-15T12:45:27.864Z,3.80
2022-11-15T12:47:54.919Z,1.83
2022-11-15T12:50:53.028Z,2.10
2022-11-15T12:53:26.076Z,4.60
2022-11-15T12:56:17.698Z,3.03
2022-11-15T12:58:47.418Z,2.93
2022-11-15T13:01:35.398Z,3.30
2022-11-15T13:04:20.762Z,2.80
2022-11-15T13:06:50.328Z,2.70
2022-11-15T13:09:36.141Z,4.90
2022-11-15T13:12:14.565Z,4.70
2022-11-15T13:14:48.676Z,2.83
2022-11-15T13:17:24.886Z,8.23
2022-11-15T13:20:08.117Z,10.80
2022-11-15T13:22:51.876Z,4.40
2022-11-15T13:25:46.410Z,3.57
2022-11-15T13:28:13.188Z,3.17
2022-11-15T13:30:40.320Z,3.03
2022-11-15T13:33:19.321Z,4.20
2022-11-15T13:35:57.280Z,10.17
2022-11-15T13:38:29.397Z,5.90
2022-11-15T13:40:57.723Z,4.60
2022-11-15T13:43:25.124Z,4.97
2022-11-15T13:46:13.150Z,3.20
2022-11-15T13:48:42.317Z,3.33
2022-11-15T13:51:35.175Z,2.83
2022-11-15T13:54:27.150Z,5.33
2022-11-15T13:57:06.529Z,8.63
2022-11-15T13:59:45.071Z,3.03
2022-11-15T14:02:20.945Z,4.30
2022-11-15T14:05:17.511Z,3.47
2022-11-15T14:08:04.407Z,5.60
2022-11-15T14:10:37.215Z,4.47
2022-11-15T14:13:05.977Z,6.23
2022-11-15T14:15:34.997Z,5.17
2022-11-15T14:18:02.274Z,4.87
2022-11-15T14:20:39.056Z,3.83
2022-11-15T14:23:28.892Z,6.53
2022-11-15T14:26:00.201Z,3.77
2022-11-15T14:28:26.991Z,4.30
2022-11-15T14:30:55.770Z,4.00
2022-11-15T14:33:31.681Z,4.13
2022-11-15T14:36:03.019Z,4.40
2022-11-15T14:38:31.121Z,4.60
2022-11-15T14:41:01.310Z,6.80
2022-11-15T14:43:28.164Z,7.50
2022-11-15T14:45:55.145Z,5.57
2022-11-15T14:48:23.095Z,5.67
2022-11-15T14:50:50.003Z,6.13
2022-11-15T14:53:18.560Z,6.77
2022-11-15T14:55:45.540Z,7.53
2022-11-15T14:58:12.356Z,8.67
2022-11-15T15:00:42.125Z,7.03
2022-11-15T15:03:09.188Z,14.50
2022-11-15T15:05:38.663Z,8.50
2022-11-15T15:08:06.866Z,12.60
2022-11-15T15:10:41.637Z,7.33
2022-11-15T15:13:21.541Z,9.97
2022-11-15T15:15:49.468Z,17.73
2022-11-15T15:18:16.580Z,8.53
2022-11-15T15:20:44.937Z,8.77
2022-11-15T15:23:21.902Z,10.20
2022-11-15T15:25:50.100Z,10.33
2022-11-15T15:28:17.191Z,10.33
2022-11-15T15:30:44.663Z,11.20
2022-11-15T15:33:11.510Z,11.43
2022-11-15T15:35:38.370Z,12.20
2022-11-15T15:38:06.546Z,9.97
2022-11-15T15:40:34.291Z,9.03
2022-11-15T15:43:01.400Z,11.03
2022-11-15T15:45:29.208Z,14.73
2022-11-15T15:47:56.684Z,13.23
2022-11-15T15:50:24.960Z,12.70
2022-11-15T15:52:53.086Z,11.70
2022-11-15T15:55:20.990Z,13.33
2022-11-15T15:57:48.763Z,16.77
2022-11-15T16:00:16.229Z,15.03
2022-11-15T16:02:43.640Z,14.00
2022-11-15T16:05:11.583Z,18.17
2022-11-15T16:07:38.889Z,16.07
2022-11-15T16:10:28.094Z,11.93
2022-11-15T16:12:56.430Z,18.30
2022-11-15T16:15:25.202Z,14.23
2022-11-15T16:17:54.270Z,17.50
2022-11-15T16:20:47.040Z,17.93
2022-11-15T16:23:16.113Z,12.07
2022-11-15T16:25:50.456Z,17.60
2022-11-15T16:28:24.402Z,14.30
2022-11-15T16:31:08.830Z,15.00
2022-11-15T16:33:36.188Z,12.10
2022-11-15T16:36:05.037Z,13.20
2022-11-15T16:38:32.429Z,12.73
2022-11-15T16:40:59.550Z,11.20
2022-11-15T16:43:26.473Z,15.33
2022-11-15T16:45:53.324Z,17.60
2022-11-15T16:48:25.595Z,13.47
2022-11-15T16:50:56.857Z,15.73
2022-11-15T16:53:23.993Z,12.93
2022-11-15T16:55:50.829Z,13.57
2022-11-15T16:58:17.648Z,20.48
2022-11-15T17:00:44.635Z,14.60
2022-11-15T17:03:11.994Z,13.43
2022-11-15T17:05:38.870Z,13.83
2022-11-15T17:08:06.521Z,18.73
2022-11-15T17:10:33.387Z,18.95
2022-11-15T17:13:00.196Z,14.13
2022-11-15T17:15:27.126Z,14.55
2022-11-15T17:17:54.917Z,18.48
2022-11-15T17:20:24.058Z,10.40
2022-11-15T17:22:52.689Z,19.08
2022-11-15T17:25:19.686Z,15.20
2022-11-15T17:27:46.555Z,15.35
2022-11-15T17:30:15.580Z,17.90
2022-11-15T17:32:43.306Z,13.93
2022-11-15T17:35:15.555Z,15.63
2022-11-15T17:37:43.325Z,14.48
2022-11-15T17:40:10.705Z,14.27
2022-11-15T17:42:40.244Z,15.93
2022-11-15T17:45:10.210Z,15.40
2022-11-15T17:47:37.770Z,15.93
2022-11-15T17:50:05.302Z,20.20
2022-11-15T17:52:32.149Z,24.15
2022-11-15T17:54:59.034Z,14.43
2022-11-15T17:57:25.812Z,14.52
2022-11-15T17:59:52.635Z,14.23
2022-11-15T18:02:19.622Z,18.75
2022-11-15T18:04:46.417Z,20.05
2022-11-15T18:07:14.151Z,19.55
2022-11-15T18:09:43.967Z,16.27
2022-11-15T18:12:11.849Z,16.35
2022-11-15T18:14:39.152Z,22.40
2022-11-15T18:17:06.253Z,17.13
2022-11-15T18:19:33.686Z,21.00
2022-11-15T18:22:01.546Z,32.08
2022-11-15T18:24:30.794Z,22.27
2022-11-15T18:26:58.923Z,21.25
2022-11-15T18:29:26.167Z,19.17
2022-11-15T18:31:57.107Z,15.45
2022-11-15T18:34:26.154Z,19.42
2022-11-15T18:36:53.633Z,16.48
2022-11-15T18:39:20.791Z,22.40
2022-11-15T18:41:47.752Z,16.63
2022-11-15T18:44:15.448Z,20.42
2022-11-15T18:46:42.671Z,21.45
2022-11-15T18:49:10.589Z,16.65
2022-11-15T18:51:42.024Z,27.27
2022-11-15T18:54:14.226Z,23.23
2022-11-15T18:56:44.214Z,17.45
2022-11-15T18:59:11.077Z,21.90
2022-11-15T19:01:40.106Z,19.52
2022-11-15T19:04:17.496Z,23.80
2022-11-15T19:06:46.534Z,17.58
2022-11-15T19:09:16.086Z,17.48
2022-11-15T19:11:44.617Z,21.60
2022-11-15T19:14:17.491Z,23.50
2022-11-15T19:16:50.016Z,17.77
2022-11-15T19:19:19.623Z,17.88
2022-11-15T19:21:46.552Z,24.92
2022-11-15T19:24:13.532Z,20.08
2022-11-15T19:26:40.786Z,20.85
2022-11-15T19:29:10.474Z,19.27
2022-11-15T19:31:38.157Z,13.85
2022-11-15T19:34:06.450Z,19.15
2022-11-15T19:36:41.657Z,19.77
2022-11-15T19:39:12.765Z,17.98
2022-11-15T19:41:43.804Z,16.38
2022-11-15T19:44:11.999Z,19.23
2022-11-15T19:46:39.731Z,23.10
2022-11-15T19:49:11.012Z,18.60
2022-11-15T19:51:39.122Z,33.63
2022-11-15T19:54:08.818Z,20.52
2022-11-15T19:56:36.178Z,17.10
2022-11-15T19:59:04.653Z,15.68
2022-11-15T20:01:36.254Z,27.98
2022-11-15T20:04:03.668Z,17.00
2022-11-15T20:06:33.531Z,20.20
2022-11-15T20:09:00.449Z,17.63
2022-11-15T20:11:27.645Z,24.70
2022-11-15T20:13:59.459Z,16.77
2022-11-15T20:16:26.644Z,17.77
2022-11-15T20:18:53.950Z,18.92
2022-11-15T20:21:21.940Z,17.08
2022-11-15T20:23:50.842Z,21.08
2022-11-15T20:26:18.958Z,18.90
2022-11-15T20:28:45.932Z,20.38
2022-11-15T20:31:13.062Z,19.75
2022-11-15T20:33:40.348Z,23.55
2022-11-15T20:36:12.579Z,17.90
2022-11-15T20:38:39.920Z,16.25
2022-11-15T20:41:07.052Z,11.80
2022-11-15T20:43:34.115Z,23.42
2022-11-15T20:46:00.937Z,20.58
2022-11-15T20:48:27.798Z,18.85
2022-11-15T20:51:14.406Z,18.42
2022-11-15T20:53:42.603Z,17.33
2022-11-15T20:56:18.299Z,15.93
2022-11-15T20:58:46.204Z,16.60
2022-11-15T21:01:15.115Z,19.63
2022-11-15T21:03:42.219Z,17.00
2022-11-15T21:06:09.243Z,26.65
2022-11-15T21:08:54.570Z,20.88
2022-11-15T21:11:40.207Z,20.65
2022-11-15T21:14:09.484Z,17.80
2022-11-15T21:16:37.147Z,18.95
2022-11-15T21:19:04.016Z,15.73
2022-11-15T21:21:31.083Z,15.68
2022-11-15T21:23:57.899Z,28.27
2022-11-15T21:26:26.877Z,20.23
2022-11-15T21:28:53.700Z,21.25
2022-11-15T21:31:20.623Z,16.90
2022-11-15T21:33:47.424Z,17.35
2022-11-15T21:36:14.404Z,19.02
2022-11-15T21:38:41.252Z,16.23
2022-11-15T21:41:08.423Z,15.98
2022-11-15T21:43:35.835Z,15.25
2022-11-15T21:46:05.085Z,14.93
2022-11-15T21:48:34.377Z,17.20
2022-11-15T21:51:06.575Z,14.15
2022-11-15T21:53:34.624Z,15.02
2022-11-15T21:56:02.137Z,25.00
2022-11-15T21:58:29.404Z,12.90
2022-11-15T22:01:15.136Z,13.57
2022-11-15T22:03:43.038Z,12.50
2022-11-15T22:06:14.476Z,16.13
2022-11-15T22:08:45.389Z,15.90
2022-11-15T22:11:12.504Z,14.45
2022-11-15T22:13:39.381Z,12.93
2022-11-15T22:16:06.997Z,17.17
2022-11-15T22:18:34.249Z,19.58
2022-11-15T22:21:05.176Z,19.38
2022-11-15T22:23:33.480Z,16.33
2022-11-15T22:26:00.920Z,17.95
2022-11-15T22:28:27.766Z,13.77
2022-11-15T22:30:55.304Z,21.48
2022-11-15T22:33:25.690Z,16.00
2022-11-15T22:35:53.044Z,18.98
2022-11-15T22:38:20.102Z,14.70
2022-11-15T22:40:47.447Z,15.48
2022-11-15T22:43:16.331Z,18.27
2022-11-15T22:45:52.534Z,14.45
2022-11-15T22:48:21.060Z,17.88
2022-11-15T22:50:48.398Z,14.10
2022-11-15T22:53:15.213Z,14.15
2022-11-15T22:55:42.314Z,15.13
2022-11-15T22:58:09.434Z,16.77
2022-11-15T23:00:36.954Z,17.05
2022-11-15T23:03:04.282Z,18.55
2022-11-15T23:05:31.204Z,12.95
2022-11-15T23:07:58.001Z,18.08
2022-11-15T23:10:43.259Z,14.85
2022-11-15T23:13:18.926Z,13.52
2022-11-15T23:16:08.290Z,17.38
2022-11-15T23:18:41.685Z,14.10
2022-11-15T23:21:09.548Z,13.38
2022-11-15T23:23:36.490Z,12.75
2022-11-15T23:26:03.404Z,13.45
2022-11-15T23:28:31.660Z,12.80
2022-11-15T23:31:25.932Z,17.63
2022-11-15T23:33:58.783Z,15.25
2022-11-15T23:36:29.422Z,15.65
2022-11-15T23:38:56.645Z,14.60
2022-11-15T23:41:23.899Z,13.75
2022-11-15T23:43:51.459Z,12.27
2022-11-15T23:46:18.363Z,17.73
2022-11-15T23:48:45.166Z,14.13
2022-11-15T23:51:12.007Z,16.50
2022-11-15T23:53:38.877Z,13.85
2022-11-15T23:56:12.756Z,13.52
2022-11-15T23:58:40.283Z,13.32
